Time;durP1;ratioP1;P1;durP2;ratioP2;P2;SDS_P1;SDS_P2;PMS_P1;PMS_P2;Temp;Humidity;BMP_temperature;BMP_pressure;BME280_temperature;BME280_humidity;BME280_pressure;Samples;Min_cycle;Max_cycle;Signal;HPM_P1;HPM_P2
2021/01/24 00:00:09;;;;;;;6.37;3.70;;;5.00;90.80;;;;;;6275802;22;20004;-80
2021/01/24 00:02:35;;;;;;;5.50;3.43;;;5.00;91.10;;;;;;6276519;22;20073;-80
2021/01/24 00:05:00;;;;;;;6.10;3.57;;;4.90;91.50;;;;;;6276343;22;19996;-80
2021/01/24 00:07:26;;;;;;;5.53;3.20;;;5.00;91.40;;;;;;6276224;22;20007;-80
2021/01/24 00:09:52;;;;;;;5.83;3.50;;;5.00;91.00;;;;;;6275474;22;20008;-80
2021/01/24 00:12:17;;;;;;;6.40;3.60;;;5.00;91.00;;;;;;6276280;22;20030;-80
2021/01/24 00:14:43;;;;;;;6.60;3.43;;;4.90;91.00;;;;;;6249394;22;20008;-80
2021/01/24 00:17:09;;;;;;;5.67;3.60;;;5.00;91.20;;;;;;6276333;22;20008;-80
2021/01/24 00:19:34;;;;;;;5.90;3.70;;;5.00;91.10;;;;;;6275472;22;20010;-80
2021/01/24 00:22:00;;;;;;;6.00;3.77;;;5.00;91.40;;;;;;6276668;22;20004;-80
2021/01/24 00:24:26;;;;;;;5.70;3.57;;;5.00;91.80;;;;;;6276466;22;20027;-80
2021/01/24 00:26:51;;;;;;;5.30;3.70;;;4.90;92.10;;;;;;6276470;22;20072;-80
2021/01/24 00:29:17;;;;;;;7.70;4.17;;;4.90;92.20;;;;;;6248671;22;20045;-80
2021/01/24 00:31:42;;;;;;;8.57;4.77;;;4.90;92.10;;;;;;6249057;22;20003;-81
2021/01/24 00:34:09;;;;;;;7.33;3.57;;;5.00;92.40;;;;;;6276193;22;20069;-80
2021/01/24 00:36:35;;;;;;;8.50;3.20;;;5.00;91.40;;;;;;6276163;22;20004;-80
2021/01/24 00:39:01;;;;;;;5.63;3.50;;;5.00;91.50;;;;;;6275503;22;20003;-80
2021/01/24 00:41:29;;;;;;;7.37;3.73;;;5.00;91.70;;;;;;6276867;22;20091;-80
2021/01/24 00:43:54;;;;;;;7.33;3.57;;;5.00;92.20;;;;;;6277425;22;20087;-81
2021/01/24 00:46:20;;;;;;;6.43;3.20;;;5.00;91.70;;;;;;6276920;22;20349;-81
2021/01/24 00:48:46;;;;;;;5.37;2.53;;;4.90;91.60;;;;;;6276652;22;20053;-82
2021/01/24 00:51:11;;;;;;;4.70;2.50;;;4.90;91.70;;;;;;6276597;22;19999;-81
2021/01/24 00:53:37;;;;;;;3.70;2.13;;;4.80;91.40;;;;;;6276938;22;20359;-81
2021/01/24 00:56:03;;;;;;;3.73;2.10;;;4.80;91.40;;;;;;6277341;22;20038;-81
2021/01/24 00:58:28;;;;;;;3.97;2.10;;;4.70;91.20;;;;;;6277462;22;20262;-81
2021/01/24 01:00:54;;;;;;;14.83;8.60;;;4.60;91.10;;;;;;6276708;22;20049;-81
2021/01/24 01:03:19;;;;;;;6.17;2.93;;;4.60;91.70;;;;;;6277384;22;20004;-82
2021/01/24 01:05:46;;;;;;;4.97;2.80;;;4.60;91.80;;;;;;6277028;22;20063;-82
2021/01/24 01:08:12;;;;;;;4.70;2.50;;;4.60;91.80;;;;;;6278328;22;20004;-80
2021/01/24 01:10:37;;;;;;;5.37;2.43;;;4.60;91.90;;;;;;6250472;22;20385;-82
2021/01/24 01:13:03;;;;;;;6.87;2.57;;;4.70;92.10;;;;;;6278106;22;20031;-81
2021/01/24 01:15:29;;;;;;;3.77;2.53;;;4.70;92.10;;;;;;6250029;22;20014;-80
2021/01/24 01:17:54;;;;;;;4.27;2.60;;;4.70;91.90;;;;;;6275952;22;20060;-80
2021/01/24 01:20:20;;;;;;;7.53;3.90;;;4.70;92.00;;;;;;6248139;22;20004;-80
2021/01/24 01:22:46;;;;;;;9.93;6.10;;;4.60;91.70;;;;;;6275554;22;20006;-80
2021/01/24 01:25:11;;;;;;;11.20;6.83;;;4.50;91.40;;;;;;6248730;22;20016;-81
2021/01/24 01:27:38;;;;;;;10.23;7.10;;;4.40;91.20;;;;;;6275086;22;20003;-81
2021/01/24 01:30:07;;;;;;;12.37;7.43;;;4.20;91.30;;;;;;6274887;22;20010;-82
2021/01/24 01:32:34;;;;;;;12.52;7.85;;;4.20;92.00;;;;;;6275492;22;20312;-81
2021/01/24 01:35:00;;;;;;;12.93;8.50;;;4.30;92.00;;;;;;6248702;22;19996;-81
2021/01/24 01:37:26;;;;;;;16.30;9.73;;;4.30;91.60;;;;;;6248173;22;20078;-81
2021/01/24 01:39:52;;;;;;;16.03;11.33;;;4.10;91.80;;;;;;6274882;22;19996;-81
2021/01/24 01:42:17;;;;;;;15.87;10.83;;;3.90;91.80;;;;;;6275346;22;20011;-81
2021/01/24 01:44:44;;;;;;;19.43;12.00;;;4.00;92.30;;;;;;6275686;22;20008;-80
2021/01/24 01:47:12;;;;;;;21.87;13.20;;;3.90;92.10;;;;;;6275652;22;19995;-81
2021/01/24 01:49:38;;;;;;;24.53;15.17;;;4.00;92.60;;;;;;6275048;22;20000;-81
2021/01/24 01:52:04;;;;;;;26.37;17.20;;;3.90;92.10;;;;;;6248351;22;20067;-80
2021/01/24 01:54:30;;;;;;;28.40;18.70;;;3.70;92.40;;;;;;6275517;22;20004;-80
2021/01/24 01:56:56;;;;;;;30.93;18.27;;;3.60;92.30;;;;;;6273941;22;20330;-79
2021/01/24 01:59:21;;;;;;;25.77;18.00;;;3.60;92.50;;;;;;6274462;22;20053;-79
2021/01/24 02:01:56;;;;;;;26.73;17.57;;;3.60;92.70;;;;;;6275371;22;20003;-80
2021/01/24 02:04:31;;;;;;;26.97;17.87;;;3.50;92.50;;;;;;6275511;22;20016;-79
2021/01/24 02:07:04;;;;;;;28.93;18.40;;;3.50;93.10;;;;;;6275599;22;20022;-80
2021/01/24 02:09:38;;;;;;;28.10;18.47;;;3.50;92.90;;;;;;6275088;22;20057;-79
2021/01/24 02:12:35;;;;;;;32.00;19.90;;;3.40;93.00;;;;;;6275348;22;20055;-79
2021/01/24 02:15:05;;;;;;;32.40;19.47;;;3.30;93.30;;;;;;6248250;22;20027;-80
2021/01/24 02:17:37;;;;;;;36.15;21.50;;;3.20;93.10;;;;;;6276139;22;20074;-81
2021/01/24 02:20:57;;;;;;;41.83;23.73;;;3.10;93.30;;;;;;6274510;22;20287;-82
2021/01/24 02:23:26;;;;;;;32.73;18.73;;;3.10;93.40;;;;;;6153479;23;20001;-81
2021/01/24 02:26:09;;;;;;;33.88;19.55;;;3.00;93.40;;;;;;6254004;22;20046;-81
2021/01/24 02:29:16;;;;;;;25.57;15.43;;;3.10;93.20;;;;;;6277666;22;20011;-81
2021/01/24 02:31:44;;;;;;;23.83;12.93;;;2.90;92.70;;;;;;6251339;22;20019;-81
2021/01/24 02:34:10;;;;;;;21.77;12.20;;;2.80;92.90;;;;;;6252540;22;20007;-81
2021/01/24 02:36:38;;;;;;;19.23;11.40;;;2.60;92.70;;;;;;6280282;22;20003;-82
2021/01/24 02:39:06;;;;;;;18.13;10.53;;;2.50;93.10;;;;;;6281034;22;19996;-81
2021/01/24 02:41:33;;;;;;;18.47;10.17;;;2.40;93.30;;;;;;6282686;22;19996;-81
2021/01/24 02:44:00;;;;;;;18.00;9.50;;;2.50;93.10;;;;;;6282435;22;20031;-81
2021/01/24 02:46:26;;;;;;;16.00;9.10;;;2.50;92.90;;;;;;6282868;22;20004;-81
2021/01/24 02:48:53;;;;;;;17.10;9.27;;;2.40;93.10;;;;;;6282775;22;20379;-81
2021/01/24 02:51:19;;;;;;;15.33;8.53;;;2.20;93.30;;;;;;6283263;22;20007;-82
2021/01/24 02:53:48;;;;;;;14.63;8.30;;;2.20;93.50;;;;;;6255800;22;19999;-82
2021/01/24 02:56:15;;;;;;;12.93;8.00;;;2.10;93.80;;;;;;6281556;22;20003;-82
2021/01/24 02:58:42;;;;;;;10.90;7.10;;;2.20;93.50;;;;;;6280029;22;20004;-82
2021/01/24 03:01:07;;;;;;;13.60;7.03;;;2.10;93.80;;;;;;6278992;22;20000;-82
2021/01/24 03:03:33;;;;;;;10.63;6.40;;;2.00;93.90;;;;;;6278891;22;20046;-81
2021/01/24 03:05:59;;;;;;;10.67;6.10;;;1.90;94.20;;;;;;6277367;22;20007;-80
2021/01/24 03:08:24;;;;;;;9.77;5.63;;;1.90;94.20;;;;;;6276458;22;20338;-80
2021/01/24 03:10:50;;;;;;;9.40;5.33;;;1.90;94.60;;;;;;6248668;22;20095;-79
2021/01/24 03:13:28;;;;;;;9.07;5.00;;;1.80;94.60;;;;;;6249161;22;20004;-79
2021/01/24 03:15:54;;;;;;;10.63;5.90;;;1.90;94.50;;;;;;6276458;22;20513;-79
2021/01/24 03:18:26;;;;;;;8.53;4.93;;;1.90;94.80;;;;;;6274721;22;20496;-79
2021/01/24 03:20:55;;;;;;;10.77;4.73;;;1.90;94.90;;;;;;6274736;22;20004;-79
2021/01/24 03:23:22;;;;;;;9.40;4.73;;;2.00;94.30;;;;;;6276011;22;20050;-79
2021/01/24 03:25:48;;;;;;;9.27;4.60;;;2.00;94.30;;;;;;6276404;22;19999;-79
2021/01/24 03:28:16;;;;;;;8.53;4.37;;;1.90;94.20;;;;;;6276105;22;20330;-79
2021/01/24 03:30:42;;;;;;;9.83;4.53;;;1.90;94.30;;;;;;6248507;22;20363;-79
2021/01/24 03:33:08;;;;;;;7.93;3.97;;;1.80;94.40;;;;;;6276392;22;20031;-80
2021/01/24 03:35:34;;;;;;;6.87;3.73;;;1.80;94.30;;;;;;6276751;22;20103;-79
2021/01/24 03:37:59;;;;;;;8.73;4.43;;;2.00;94.60;;;;;;6276580;22;20027;-79
2021/01/24 03:40:25;;;;;;;11.50;5.40;;;1.90;94.50;;;;;;6275712;22;20004;-79
2021/01/24 03:42:51;;;;;;;9.23;5.03;;;1.90;94.50;;;;;;6276357;22;20000;-79
2021/01/24 03:45:16;;;;;;;11.77;6.50;;;2.00;94.30;;;;;;6276463;22;19995;-80
2021/01/24 03:47:42;;;;;;;13.10;7.67;;;2.00;94.30;;;;;;6276278;22;20006;-80
2021/01/24 03:50:08;;;;;;;15.93;9.40;;;2.00;94.10;;;;;;6275111;22;20053;-79
2021/01/24 03:52:34;;;;;;;14.73;7.80;;;2.00;94.00;;;;;;6276163;22;20079;-79
2021/01/24 03:55:00;;;;;;;11.87;6.20;;;2.00;94.10;;;;;;6276352;22;20038;-80
2021/01/24 03:57:26;;;;;;;10.67;5.47;;;1.90;94.70;;;;;;6275970;22;20083;-79
2021/01/24 03:59:53;;;;;;;7.97;4.63;;;1.80;94.50;;;;;;6275533;22;20014;-79
2021/01/24 04:02:20;;;;;;;8.63;5.13;;;1.70;94.80;;;;;;6276042;22;20015;-80
2021/01/24 04:04:46;;;;;;;9.90;5.67;;;1.70;94.80;;;;;;6276213;22;20004;-79
2021/01/24 04:07:12;;;;;;;11.63;6.27;;;1.70;95.00;;;;;;6275674;22;19996;-79
2021/01/24 04:09:38;;;;;;;9.13;5.57;;;1.70;95.10;;;;;;6275881;22;20014;-79
2021/01/24 04:12:04;;;;;;;8.30;5.17;;;1.70;95.00;;;;;;6276233;22;20027;-79
2021/01/24 04:14:30;;;;;;;11.03;5.80;;;1.70;95.10;;;;;;6276108;22;19999;-79
2021/01/24 04:16:58;;;;;;;9.23;5.30;;;1.80;95.40;;;;;;6276022;22;20000;-79
2021/01/24 04:19:24;;;;;;;8.90;4.50;;;1.70;95.00;;;;;;6275111;22;20419;-79
2021/01/24 04:21:49;;;;;;;7.63;4.57;;;1.70;95.20;;;;;;6248653;22;20015;-80
2021/01/24 04:24:15;;;;;;;8.63;4.13;;;1.60;95.80;;;;;;6275899;22;20000;-79
2021/01/24 04:26:40;;;;;;;9.13;4.87;;;1.70;95.70;;;;;;6276247;22;20409;-79
2021/01/24 04:29:06;;;;;;;7.80;4.30;;;1.80;95.30;;;;;;6275288;22;20027;-80
2021/01/24 04:31:32;;;;;;;7.13;3.90;;;1.90;95.30;;;;;;6248471;22;20418;-79
2021/01/24 04:33:57;;;;;;;8.00;4.00;;;1.70;95.20;;;;;;6275815;22;20133;-80
2021/01/24 04:36:23;;;;;;;7.20;3.70;;;1.70;95.20;;;;;;6275929;22;20126;-79
2021/01/24 04:38:48;;;;;;;7.03;3.60;;;1.70;95.40;;;;;;6275799;22;20004;-80
2021/01/24 04:41:14;;;;;;;5.93;3.20;;;1.70;95.40;;;;;;6275199;22;20374;-80
2021/01/24 04:43:41;;;;;;;6.20;3.30;;;1.70;95.20;;;;;;6275589;22;20035;-79
2021/01/24 04:46:08;;;;;;;5.23;2.90;;;1.60;95.20;;;;;;6248824;22;20007;-79
2021/01/24 04:48:34;;;;;;;5.93;3.00;;;1.50;95.30;;;;;;6275876;22;20004;-79
2021/01/24 04:51:00;;;;;;;6.27;3.30;;;1.50;95.50;;;;;;6248015;22;20049;-79
2021/01/24 04:53:25;;;;;;;5.63;3.30;;;1.60;95.40;;;;;;6275470;22;20057;-79
2021/01/24 04:55:51;;;;;;;4.97;2.80;;;1.60;95.20;;;;;;6276049;22;20027;-80
2021/01/24 04:58:17;;;;;;;5.70;2.77;;;1.40;95.20;;;;;;6276109;22;20381;-80
2021/01/24 05:00:43;;;;;;;5.90;3.20;;;1.40;95.90;;;;;;6276191;22;20422;-80
2021/01/24 05:03:09;;;;;;;6.40;3.00;;;1.40;95.70;;;;;;6276329;22;20014;-80
2021/01/24 05:05:35;;;;;;;7.63;3.30;;;1.40;96.10;;;;;;6276919;22;20008;-80
2021/01/24 05:08:00;;;;;;;5.93;3.40;;;1.40;95.80;;;;;;6276279;22;20003;-81
2021/01/24 05:10:30;;;;;;;4.27;2.47;;;1.50;95.70;;;;;;6248667;22;20027;-80
2021/01/24 05:12:58;;;;;;;7.07;3.03;;;1.40;95.80;;;;;;6277216;22;20330;-80
2021/01/24 05:15:25;;;;;;;7.93;3.23;;;1.40;95.90;;;;;;6249593;22;20004;-80
2021/01/24 05:17:56;;;;;;;8.93;3.57;;;1.40;96.00;;;;;;6249382;22;20385;-80
2021/01/24 05:20:27;;;;;;;6.80;3.10;;;1.30;96.20;;;;;;6276124;22;20007;-80
2021/01/24 05:22:58;;;;;;;6.37;3.10;;;1.40;96.80;;;;;;6249181;22;20026;-80
2021/01/24 05:25:27;;;;;;;6.13;3.20;;;1.40;95.90;;;;;;6276756;22;20492;-81
2021/01/24 05:27:53;;;;;;;7.00;2.90;;;1.30;96.10;;;;;;6276634;22;20004;-81
2021/01/24 05:30:29;;;;;;;8.10;3.23;;;1.40;96.10;;;;;;6275951;22;20014;-80
2021/01/24 05:32:57;;;;;;;6.73;2.83;;;1.30;96.30;;;;;;6250175;22;20008;-81
2021/01/24 05:35:23;;;;;;;6.43;2.60;;;1.40;96.40;;;;;;6250006;22;20004;-80
2021/01/24 05:37:49;;;;;;;7.20;3.30;;;1.40;96.10;;;;;;6250281;22;20392;-80
2021/01/24 05:40:15;;;;;;;7.77;3.47;;;1.50;96.60;;;;;;6276873;22;20370;-80
2021/01/24 05:42:41;;;;;;;8.60;3.30;;;1.40;96.10;;;;;;6277806;22;19995;-80
2021/01/24 05:45:14;;;;;;;8.90;3.67;;;1.50;96.10;;;;;;6250302;22;19999;-81
2021/01/24 05:47:47;;;;;;;9.13;3.73;;;1.50;95.80;;;;;;6249982;22;20049;-80
2021/01/24 05:50:19;;;;;;;10.20;4.20;;;1.60;95.70;;;;;;6249024;22;20011;-80
2021/01/24 05:52:49;;;;;;;7.07;3.60;;;1.50;95.90;;;;;;6276688;22;19996;-80
2021/01/24 05:55:47;;;;;;;10.13;4.10;;;1.50;95.90;;;;;;6276713;22;20548;-80
2021/01/24 05:58:16;;;;;;;10.07;4.67;;;1.60;95.80;;;;;;6184098;22;19999;-80
2021/01/24 06:00:43;;;;;;;14.25;6.80;;;1.50;95.80;;;;;;6276277;22;20007;-81
2021/01/24 06:03:09;;;;;;;15.87;7.03;;;1.50;96.10;;;;;;6275723;22;20091;-81
2021/01/24 06:05:36;;;;;;;12.40;6.03;;;1.60;96.00;;;;;;6276589;22;20000;-81
2021/01/24 06:08:02;;;;;;;12.70;6.00;;;1.70;95.60;;;;;;6276699;22;20389;-80
2021/01/24 06:10:27;;;;;;;11.57;5.37;;;1.70;95.70;;;;;;6275629;22;20057;-81
2021/01/24 06:12:54;;;;;;;14.37;6.53;;;1.70;95.50;;;;;;6276743;22;20313;-81
2021/01/24 06:15:24;;;;;;;12.00;5.60;;;1.70;95.80;;;;;;6279170;22;20000;-81
2021/01/24 06:17:53;;;;;;;11.50;5.82;;;1.70;95.60;;;;;;6279252;22;20031;-81
2021/01/24 06:20:19;;;;;;;10.02;5.43;;;1.60;95.40;;;;;;6278727;22;20000;-81
2021/01/24 06:23:08;;;;;;;11.63;5.90;;;1.70;95.60;;;;;;6279361;22;20070;-81
2021/01/24 06:25:38;;;;;;;13.43;6.22;;;1.70;95.50;;;;;;6279939;22;20004;-81
2021/01/24 06:28:25;;;;;;;10.37;5.40;;;1.70;95.70;;;;;;6279394;22;20035;-81
2021/01/24 06:30:51;;;;;;;14.90;6.70;;;1.80;95.60;;;;;;6279253;22;20007;-81
2021/01/24 06:33:21;;;;;;;14.30;7.20;;;1.80;95.50;;;;;;6251933;22;20446;-82
2021/01/24 06:35:58;;;;;;;12.23;6.50;;;1.80;95.60;;;;;;6279640;22;20007;-82
2021/01/24 06:38:29;;;;;;;16.87;8.17;;;1.90;95.60;;;;;;6279980;22;20087;-82
2021/01/24 06:40:55;;;;;;;17.10;8.47;;;1.80;95.70;;;;;;6279446;22;20334;-82
2021/01/24 06:43:42;;;;;;;15.60;7.43;;;1.80;95.60;;;;;;6279977;22;20000;-81
2021/01/24 06:46:28;;;;;;;17.83;8.37;;;1.90;95.50;;;;;;6252509;22;20000;-81
2021/01/24 06:48:54;;;;;;;18.60;8.77;;;1.90;95.60;;;;;;6278191;22;20000;-82
2021/01/24 06:51:37;;;;;;;17.37;9.30;;;2.00;95.60;;;;;;6279780;22;19995;-82
2021/01/24 06:54:08;;;;;;;18.10;8.03;;;1.90;95.10;;;;;;6280572;22;20079;-81
2021/01/24 06:56:51;;;;;;;19.40;9.40;;;1.90;95.30;;;;;;6279834;22;19999;-81
2021/01/24 06:59:28;;;;;;;19.93;9.37;;;2.00;95.40;;;;;;6279502;22;20000;-82
2021/01/24 07:02:26;;;;;;;19.47;9.47;;;1.90;95.10;;;;;;6253434;22;20031;-82
2021/01/24 07:05:23;;;;;;;17.50;8.83;;;1.90;95.30;;;;;;6280348;22;20000;-82
2021/01/24 07:07:53;;;;;;;20.03;8.90;;;1.90;95.50;;;;;;6281411;22;20015;-88
2021/01/24 07:10:37;;;;;;;21.92;9.73;;;2.00;95.50;;;;;;6279117;22;20429;-88
2021/01/24 07:13:30;;;;;;;22.63;9.97;;;2.00;95.40;;;;;;6307487;22;20009;-88
2021/01/24 07:15:58;;;;;;;22.83;9.33;;;2.10;95.40;;;;;;6279817;22;20000;-88
2021/01/24 07:18:24;;;;;;;22.47;10.47;;;2.10;95.20;;;;;;6295023;22;20027;-88
2021/01/24 07:20:51;;;;;;;21.30;10.30;;;2.20;95.50;;;;;;6248552;22;20008;-88
2021/01/24 07:23:18;;;;;;;23.83;11.27;;;2.20;95.10;;;;;;6276064;22;20334;-88
2021/01/24 07:25:44;;;;;;;23.67;10.20;;;2.10;95.70;;;;;;6274423;22;20004;-88
2021/01/24 07:28:10;;;;;;;22.20;9.83;;;2.20;95.00;;;;;;6275973;22;20087;-88
2021/01/24 07:30:42;;;;;;;21.33;10.43;;;2.20;95.30;;;;;;6276485;22;20000;-88
2021/01/24 07:33:08;;;;;;;22.53;10.43;;;2.30;95.00;;;;;;6249714;22;20003;-88
2021/01/24 07:35:37;;;;;;;23.33;10.40;;;2.30;95.10;;;;;;6275301;22;20398;-86
2021/01/24 07:38:04;;;;;;;22.35;10.23;;;2.40;95.20;;;;;;6274922;22;20334;-86
2021/01/24 07:40:30;;;;;;;25.53;11.23;;;2.40;94.50;;;;;;6274331;22;20003;-86
2021/01/24 07:42:57;;;;;;;22.13;10.90;;;2.40;94.50;;;;;;6276039;22;20031;-85
2021/01/24 07:45:24;;;;;;;26.93;10.77;;;2.40;94.80;;;;;;6274928;22;20003;-86
2021/01/24 07:47:50;;;;;;;23.47;11.13;;;2.40;95.10;;;;;;6249453;22;20308;-86
2021/01/24 07:50:16;;;;;;;22.93;11.17;;;2.50;94.60;;;;;;6258030;22;20003;-85
2021/01/24 07:52:41;;;;;;;24.13;10.40;;;2.40;94.70;;;;;;6261997;22;20000;-86
2021/01/24 07:55:09;;;;;;;27.03;12.23;;;2.40;94.80;;;;;;6286193;22;20007;-86
2021/01/24 07:57:36;;;;;;;29.37;13.27;;;2.40;94.70;;;;;;6251193;22;20343;-86
2021/01/24 08:00:06;;;;;;;28.93;12.73;;;2.40;94.80;;;;;;6275939;22;20327;-85
2021/01/24 08:02:32;;;;;;;29.37;13.67;;;2.50;94.80;;;;;;6250705;22;20323;-86
2021/01/24 08:05:01;;;;;;;30.40;14.03;;;2.40;94.70;;;;;;6282693;22;20014;-85
2021/01/24 08:07:29;;;;;;;27.45;13.88;;;2.40;94.90;;;;;;6282706;22;20268;-85
2021/01/24 08:09:56;;;;;;;31.08;14.70;;;2.40;95.10;;;;;;6256718;22;20102;-86
2021/01/24 08:12:22;;;;;;;32.03;14.03;;;2.40;94.90;;;;;;6253773;22;20003;-86
2021/01/24 08:14:48;;;;;;;34.97;16.70;;;2.40;95.20;;;;;;6282105;22;20008;-86
2021/01/24 08:17:46;;;;;;;33.83;16.37;;;2.40;95.50;;;;;;6257733;22;20004;-86
2021/01/24 08:20:35;;;;;;;33.20;15.47;;;2.50;95.50;;;;;;6285194;22;20030;-86
2021/01/24 08:23:37;;;;;;;40.53;17.33;;;2.50;95.10;;;;;;6260812;22;20076;-86
2021/01/24 08:26:31;;;;;;;36.83;17.17;;;2.50;94.90;;;;;;6254601;22;20038;-86
2021/01/24 08:29:01;;;;;;;38.37;18.03;;;2.50;95.30;;;;;;6273604;22;20007;-86
2021/01/24 08:31:34;;;;;;;39.20;17.13;;;2.50;95.40;;;;;;6274980;22;20011;-86
2021/01/24 08:34:00;;;;;;;37.00;17.93;;;2.50;95.00;;;;;;6249280;22;20349;-86
2021/01/24 08:36:28;;;;;;;37.10;16.87;;;2.50;95.30;;;;;;6249521;22;20000;-86
2021/01/24 08:38:56;;;;;;;33.07;16.60;;;2.40;95.10;;;;;;6247996;22;20007;-86
2021/01/24 08:41:31;;;;;;;39.33;17.20;;;2.40;95.20;;;;;;6248811;22;20004;-85
2021/01/24 08:44:11;;;;;;;43.73;18.80;;;2.40;95.30;;;;;;6248869;22;20008;-86
2021/01/24 08:46:42;;;;;;;45.63;17.90;;;2.40;95.30;;;;;;6274275;22;20003;-86
2021/01/24 08:49:21;;;;;;;46.57;18.30;;;2.40;95.20;;;;;;6247799;22;20007;-86
2021/01/24 08:51:47;;;;;;;41.88;17.55;;;2.40;95.60;;;;;;6248444;22;20007;-85
2021/01/24 08:54:34;;;;;;;59.37;26.10;;;2.40;95.40;;;;;;6275771;22;20004;-85
2021/01/24 08:57:18;;;;;;;56.57;24.63;;;2.50;95.20;;;;;;6248432;22;20003;-86
2021/01/24 08:59:50;;;;;;;46.20;18.43;;;2.50;95.30;;;;;;6248072;22;20090;-85
2021/01/24 09:02:29;;;;;;;48.20;19.53;;;2.40;95.20;;;;;;6274010;22;20342;-85
2021/01/24 09:04:55;;;;;;;43.15;17.50;;;2.40;95.20;;;;;;6273983;22;20436;-86
2021/01/24 09:07:20;;;;;;;49.77;18.83;;;2.50;95.20;;;;;;6248300;22;19999;-85
2021/01/24 09:09:48;;;;;;;40.60;16.60;;;2.40;95.40;;;;;;6274523;22;20010;-86
2021/01/24 09:12:15;;;;;;;48.73;18.60;;;2.30;95.40;;;;;;6275192;22;20063;-86
2021/01/24 09:14:42;;;;;;;43.73;17.70;;;2.30;95.20;;;;;;6248361;22;20098;-86
2021/01/24 09:17:12;;;;;;;44.77;17.17;;;2.40;95.50;;;;;;6248476;22;20004;-85
2021/01/24 09:19:40;;;;;;;39.43;16.27;;;2.50;95.30;;;;;;6247825;22;20030;-86
2021/01/24 09:22:11;;;;;;;41.93;17.20;;;2.50;95.40;;;;;;6248283;22;20003;-86
2021/01/24 09:24:37;;;;;;;42.63;15.97;;;2.40;95.20;;;;;;6273642;22;20004;-85
2021/01/24 09:27:04;;;;;;;37.07;14.37;;;2.50;95.40;;;;;;6248386;22;20311;-86
2021/01/24 09:29:46;;;;;;;27.70;12.63;;;2.50;95.40;;;;;;6274538;22;20014;-87
2021/01/24 09:32:27;;;;;;;28.27;12.40;;;2.50;95.10;;;;;;6275523;22;20418;-87
2021/01/24 09:34:53;;;;;;;29.33;11.63;;;2.50;95.10;;;;;;6275188;22;20038;-87
2021/01/24 09:37:18;;;;;;;19.73;10.17;;;2.60;95.00;;;;;;6275244;22;20034;-87
2021/01/24 09:39:44;;;;;;;20.77;10.00;;;2.60;95.00;;;;;;6274531;22;20027;-87
2021/01/24 09:42:10;;;;;;;16.23;9.37;;;2.60;94.70;;;;;;6275555;22;20083;-87
2021/01/24 09:44:35;;;;;;;20.03;9.07;;;2.50;94.60;;;;;;6248273;22;20141;-87
2021/01/24 09:47:01;;;;;;;19.87;8.10;;;2.60;94.60;;;;;;6248278;22;20000;-87
2021/01/24 09:49:27;;;;;;;17.83;7.93;;;2.60;94.50;;;;;;6276694;22;19995;-88
2021/01/24 09:51:53;;;;;;;15.67;7.60;;;2.60;94.40;;;;;;6250119;22;20016;-87
2021/01/24 09:54:18;;;;;;;16.67;7.67;;;2.60;94.50;;;;;;6250141;22;20090;-87
2021/01/24 09:56:44;;;;;;;13.23;7.40;;;2.60;94.40;;;;;;6278250;22;20004;-87
2021/01/24 09:59:11;;;;;;;15.13;7.57;;;2.60;94.60;;;;;;6276530;22;20022;-87
2021/01/24 10:01:37;;;;;;;11.90;7.63;;;2.50;94.50;;;;;;6250565;22;20007;-87
2021/01/24 10:04:22;;;;;;;14.40;6.53;;;2.40;94.60;;;;;;6250079;22;20485;-87
2021/01/24 10:07:05;;;;;;;13.47;7.37;;;2.40;94.40;;;;;;6250155;22;20008;-87
2021/01/24 10:10:03;;;;;;;16.65;7.75;;;2.50;94.70;;;;;;6276499;22;20297;-87
2021/01/24 10:13:00;;;;;;;11.53;6.60;;;2.40;94.60;;;;;;6201088;22;20485;-87
2021/01/24 10:16:47;;;;;;;10.87;5.50;;;2.50;94.60;;;;;;6269491;22;20004;-87
2021/01/24 10:19:42;;;;;;;11.43;5.97;;;2.50;94.40;;;;;;6276410;22;20010;-88
2021/01/24 10:22:07;;;;;;;13.03;6.93;;;2.40;94.40;;;;;;6250504;22;20086;-87
2021/01/24 10:24:33;;;;;;;10.77;5.70;;;2.50;94.40;;;;;;6250914;22;20036;-87
2021/01/24 10:26:59;;;;;;;12.23;5.50;;;2.40;94.50;;;;;;6250828;22;20004;-88
2021/01/24 10:29:27;;;;;;;13.10;5.70;;;2.40;94.40;;;;;;6249938;22;20007;-88
2021/01/24 10:31:53;;;;;;;10.20;5.63;;;2.50;94.70;;;;;;6277362;22;20423;-88
2021/01/24 10:34:18;;;;;;;9.90;5.80;;;2.50;94.40;;;;;;6250247;22;20186;-88
2021/01/24 10:36:44;;;;;;;12.20;5.97;;;2.50;94.80;;;;;;6277266;22;20082;-88
2021/01/24 10:39:10;;;;;;;9.57;5.73;;;2.50;94.70;;;;;;6276453;22;20003;-87
2021/01/24 10:41:35;;;;;;;11.70;6.10;;;2.60;94.60;;;;;;6249870;22;20008;-87
2021/01/24 10:44:01;;;;;;;11.93;6.40;;;2.50;94.30;;;;;;6250110;22;20010;-87
2021/01/24 10:46:27;;;;;;;12.03;6.50;;;2.60;94.20;;;;;;6250052;22;20018;-87
2021/01/24 10:49:33;;;;;;;13.60;7.30;;;2.50;94.20;;;;;;6249633;22;20010;-88
2021/01/24 10:51:59;;;;;;;11.93;6.80;;;2.60;94.60;;;;;;6248372;22;20003;-88
2021/01/24 10:54:24;;;;;;;15.13;8.27;;;2.70;94.20;;;;;;6276930;22;20017;-87
2021/01/24 10:56:50;;;;;;;14.77;8.47;;;2.60;94.30;;;;;;6249729;22;20013;-87
2021/01/24 10:59:15;;;;;;;13.27;7.83;;;2.50;94.30;;;;;;6249179;22;20011;-87
2021/01/24 11:01:41;;;;;;;15.30;7.53;;;2.60;94.40;;;;;;6250515;22;20010;-88
2021/01/24 11:04:07;;;;;;;14.77;8.03;;;2.60;94.10;;;;;;6277632;22;20449;-87
2021/01/24 11:06:32;;;;;;;13.30;7.50;;;2.60;94.00;;;;;;6250040;22;20026;-87
2021/01/24 11:08:58;;;;;;;27.43;13.00;;;2.70;94.40;;;;;;6249737;22;20043;-87
2021/01/24 11:11:23;;;;;;;15.10;8.10;;;2.70;93.90;;;;;;6265631;22;20021;-87
2021/01/24 11:13:49;;;;;;;14.77;8.47;;;2.70;94.20;;;;;;6276438;22;20027;-87
2021/01/24 11:16:15;;;;;;;13.77;8.20;;;2.60;93.90;;;;;;6275924;22;20036;-86
2021/01/24 11:18:40;;;;;;;16.00;8.90;;;2.70;93.90;;;;;;6255241;22;20000;-87
2021/01/24 11:21:06;;;;;;;13.63;9.03;;;2.70;94.10;;;;;;6249060;22;20004;-88
2021/01/24 11:23:32;;;;;;;14.40;8.87;;;2.70;94.00;;;;;;6276470;22;20007;-88
2021/01/24 11:25:57;;;;;;;14.53;8.63;;;2.70;93.80;;;;;;6249499;22;20000;-87
2021/01/24 11:28:23;;;;;;;16.27;8.13;;;2.80;93.80;;;;;;6249282;22;20014;-87
2021/01/24 11:30:48;;;;;;;14.30;7.73;;;2.80;93.70;;;;;;6249096;22;20557;-87
2021/01/24 11:33:14;;;;;;;11.63;7.23;;;2.70;93.60;;;;;;6277344;22;20130;-87
2021/01/24 11:35:40;;;;;;;13.10;7.47;;;2.70;93.60;;;;;;6276923;22;20007;-87
2021/01/24 11:38:06;;;;;;;12.60;7.73;;;2.70;93.60;;;;;;6249356;22;20057;-88
2021/01/24 11:40:32;;;;;;;11.90;7.20;;;2.70;93.70;;;;;;6248739;22;20004;-88
2021/01/24 11:42:58;;;;;;;13.53;7.20;;;2.60;93.50;;;;;;6249196;22;20038;-88
2021/01/24 11:45:23;;;;;;;12.93;7.10;;;2.70;93.60;;;;;;6249755;22;20004;-87
2021/01/24 11:47:51;;;;;;;16.07;7.70;;;2.60;93.50;;;;;;6250584;22;20031;-87
2021/01/24 11:50:16;;;;;;;19.33;9.60;;;2.50;93.30;;;;;;6248863;22;20493;-87
2021/01/24 11:52:42;;;;;;;18.37;8.57;;;2.50;93.20;;;;;;6249259;22;20085;-88
2021/01/24 11:55:08;;;;;;;16.63;8.80;;;2.50;93.40;;;;;;6249321;22;20057;-87
2021/01/24 11:57:34;;;;;;;14.33;8.27;;;2.50;93.60;;;;;;6249615;22;20004;-87
2021/01/24 11:59:59;;;;;;;14.47;8.13;;;2.60;93.70;;;;;;6249277;22;20094;-87
2021/01/24 12:02:25;;;;;;;13.83;7.60;;;2.70;93.40;;;;;;6249927;22;20004;-87
2021/01/24 12:04:51;;;;;;;14.40;7.20;;;2.80;93.60;;;;;;6250072;22;20006;-87
2021/01/24 12:08:17;;;;;;;15.37;7.47;;;2.80;93.70;;;;;;6250027;22;20031;-87
2021/01/24 12:11:37;;;;;;;13.30;7.15;;;3.00;93.50;;;;;;6093149;23;20010;-87
2021/01/24 12:15:21;;;;;;;13.53;6.83;;;3.00;93.50;;;;;;6136072;23;20465;-87
2021/01/24 12:19:00;;;;;;;14.40;7.03;;;2.90;92.80;;;;;;6153086;23;20009;-87
2021/01/24 12:22:16;;;;;;;13.23;6.83;;;2.80;93.10;;;;;;6128227;23;20006;-87
2021/01/24 12:25:04;;;;;;;15.90;7.73;;;2.90;93.10;;;;;;6051907;23;20010;-87
2021/01/24 12:27:30;;;;;;;13.77;7.70;;;2.90;93.10;;;;;;6084123;23;20083;-87
2021/01/24 12:29:58;;;;;;;13.17;7.60;;;3.00;93.10;;;;;;6178505;22;20072;-88
2021/01/24 12:32:24;;;;;;;14.17;7.27;;;3.00;93.00;;;;;;6277467;22;20399;-87
2021/01/24 12:34:49;;;;;;;15.40;8.73;;;3.00;93.50;;;;;;6278180;22;20031;-87
2021/01/24 12:37:15;;;;;;;16.83;9.90;;;2.90;93.10;;;;;;6279831;22;19996;-88
2021/01/24 12:39:41;;;;;;;25.10;12.37;;;3.00;93.00;;;;;;6277614;22;20000;-88
2021/01/24 12:42:06;;;;;;;18.10;10.00;;;3.00;93.60;;;;;;6276240;22;19999;-87
2021/01/24 12:44:32;;;;;;;21.20;10.77;;;3.10;93.30;;;;;;6250355;22;20031;-87
2021/01/24 12:46:58;;;;;;;22.23;10.90;;;3.10;93.00;;;;;;6279963;22;20055;-87
2021/01/24 12:49:23;;;;;;;20.23;10.50;;;3.10;93.30;;;;;;6250320;22;20094;-88
2021/01/24 12:51:49;;;;;;;19.20;10.30;;;3.10;92.90;;;;;;6278360;22;20004;-87
2021/01/24 12:54:15;;;;;;;20.53;10.80;;;3.20;93.00;;;;;;6251455;22;20019;-87
2021/01/24 12:56:40;;;;;;;20.67;11.00;;;3.20;93.00;;;;;;6251442;22;20007;-87
2021/01/24 12:59:06;;;;;;;21.20;11.63;;;3.30;92.90;;;;;;6251017;22;20080;-87
2021/01/24 13:01:32;;;;;;;19.77;10.87;;;3.30;92.80;;;;;;6251578;22;20069;-87
2021/01/24 13:03:58;;;;;;;20.93;11.37;;;3.40;92.90;;;;;;6275936;22;20004;-88